This is the latest recevied weather packets stored in our database for station/object DG2HSI-10. If no packets are shown the sender has not sent any weather packets the latest 10 day(s).
| Time | Temp. | Humidity | Pressure | Rain* | Wind** | Luminosity | Snow |
|---|---|---|---|---|---|---|---|
| 1777634143 | 38.33° C | 21% | 1029.2 hPa | - | - | - | - |
| 1777632942 | 40° C | 21% | 1029.6 hPa | - | - | - | - |
| 1777631742 | 38.89° C | 22% | 1029.6 hPa | - | - | - | - |
| 1777630542 | 38.89° C | 21% | 1029.8 hPa | - | - | - | - |
| 1777629341 | 37.22° C | 23% | 1030 hPa | - | - | - | - |
| 1777628141 | 182.22° C | 100% | - | - | - | - | - |
| 1777626941 | 33.33° C | 26% | 1030.5 hPa | - | - | - | - |
| 1777625741 | 32.22° C | 26% | 1030.5 hPa | - | - | - | - |
| 1777624540 | 29.44° C | 30% | 1030.7 hPa | - | - | - | - |
| 1777623340 | 26.11° C | 34% | 1030.9 hPa | - | - | - | - |
| 1777622140 | 22.22° C | 37% | 1030.9 hPa | - | - | - | - |
| 1777620940 | 18.33° C | 43% | 1030.9 hPa | - | - | - | - |
| 1777619740 | 14.44° C | 49% | 1030.9 hPa | - | - | - | - |
| 1777618539 | 12.78° C | 53% | 1031 hPa | - | - | - | - |
| 1777617339 | 11.11° C | 53% | 1030.9 hPa | - | - | - | - |
| 1777616139 | 10° C | 57% | 1030.8 hPa | - | - | - | - |
| 1777614939 | 8.89° C | 57% | 1030.9 hPa | - | - | - | - |
| 1777613739 | 8.33° C | 58% | 1030.8 hPa | - | - | - | - |
| 1777612539 | 7.78° C | 59% | 1030.7 hPa | - | - | - | - |
| 1777611339 | 7.78° C | 59% | 1030.7 hPa | - | - | - | - |
| 1777610138 | 7.22° C | 60% | 1030.6 hPa | - | - | - | - |
| 1777608938 | 7.22° C | 60% | 1030.6 hPa | - | - | - | - |
| 1777607738 | 7.22° C | 60% | 1030.5 hPa | - | - | - | - |
| 1777606538 | 7.22° C | 60% | 1030.5 hPa | - | - | - | - |
| 1777605338 | 7.78° C | 60% | 1030.5 hPa | - | - | - | - |
* Rain since midnight (hover to see other rain measurements)
** Current wind speed in m/s (hover to see current wind gust speed)